Flugplatz Nordhorn-Lingen

EDWN · 下萨克森, 德国

罗盘
风向 的 风向 010° Flugplatz Nordhorn-Lingen 5/23
风: 5 kt, 2 beaufort

4 kt

3 kt
改变
0 1.000 2.000 3.000 4.000 5.000
FEW 200 ft
SCT 400 ft
BKN 800 ft
METAR ETWM 051520Z 01005KT 5000 -RADZ BR FEW002 SCT004 BKN008 05/04 Q1018 GRN

METAR Flugplatz Nordhorn-Lingen - EDWN

Flugplatz Nordhorn-Lingen是,德国中的小机场。 该机场有一条跑道: 5/23. 该领域的国际民航组织标志是EDWN.

这份报告是针对2022年12月5日 16:20, 当地时间在Meppen Air Base进行的。

机场观察

风向为010°,速度为5 kt。

可见度为5 km。

有几云在200 ft的高度, 疏云,零星散落的云朵在400 ft的高度 和 碎云在800 ft的高度。 破损或更高的上限为800 ft。

当前天气为光 雨 细雨, 薄雾。 温度为5 °C,阵风为1 °C。 露点为4 °C,相对湿度为93%。 海平面上的气压为1018 hPa (QNH)。

白天

今天,太阳从08:24升起,在16:19降落。 这适用于Flugplatz Nordhorn-Lingen,世界夏令时可能有所不同。 当地时间与世界标准时间之间的时差为+1 小时。 当前,没有夏令时有效。

公司介绍

我们没有关于这个机场的公司信息。

体会

到Vliegles.nl去找飞行课程,跳伞和其他飞行体验。 浏览页面,了解Flugplatz Nordhorn-Lingen附近所有可用的活动。 你也可以使用搜索功能来寻找你所在地附近的特定飞行课程、跳伞或其他飞行体验。

跑道

Id 标题 侧风 逆风 侧风 %
5/23 053°-233° 3 kt 4 kt 68 %

逆风成分最大的方向会被突出显示,并用于横风计算。 这并不一定意味着这个方向在使用。

乌云

200 ft FEW 几云
400 ft SCT 疏云,零星散落的云朵
800 ft BKN 碎云

温度 & 天气

天气 光 雨 细雨
薄雾
温度 5 °C
露点 4 °C
相对湿度 93%
风寒 1 °C
Kp-index 1 (0-9)

白天

日出
08:25 (15:38)
中午
12:21
日落
16:17

小工具

你想在你的网站上有一个关于Flugplatz Nordhorn-Lingen的当前航空天气(METAR)的小部件吗?

显示HTML代码

我们和第三方通过cookies跟踪您在我们网站上的互联网行为。如果你继续,我们认为你同意我们的饼干政策